Time;durP1;ratioP1;P1;durP2;ratioP2;P2;SDS_P1;SDS_P2;PMS_P1;PMS_P2;Temp;Humidity;BMP_temperature;BMP_pressure;BME280_temperature;BME280_humidity;BME280_pressure;Samples;Min_cycle;Max_cycle;Signal;HPM_P1;HPM_P2
2022/10/11 00:01:08;;;;;;;1.38;0.20;;;;;;;26.66;37.62;101052.94;5028870;28;20550;-76
2022/10/11 00:03:36;;;;;;;3.40;0.40;;;;;;;26.60;38.00;101045.22;5029219;28;20042;-79
2022/10/11 00:06:05;;;;;;;2.92;0.30;;;;;;;26.50;37.33;101048.13;5022478;28;20057;-79
2022/10/11 00:08:34;;;;;;;2.38;0.40;;;;;;;26.44;36.78;101042.16;5026170;28;20124;-77
2022/10/11 00:11:05;;;;;;;2.22;0.20;;;;;;;26.40;37.13;101044.03;5027306;28;20053;-78
2022/10/11 00:13:34;;;;;;;0.82;0.30;;;;;;;26.38;37.23;101047.63;5032622;28;20046;-85
2022/10/11 00:16:09;;;;;;;1.77;0.50;;;;;;;26.38;38.86;101040.53;5022070;28;20065;-83
2022/10/11 00:18:38;;;;;;;5.40;0.50;;;;;;;26.36;38.38;101046.81;5031817;28;20053;-81
2022/10/11 00:21:10;;;;;;;2.15;0.20;;;;;;;26.28;37.73;101039.97;5025366;28;20108;-81
2022/10/11 00:23:40;;;;;;;1.65;0.30;;;;;;;26.21;36.91;101034.91;5026604;28;20045;-78
2022/10/11 00:26:09;;;;;;;1.20;0.30;;;;;;;26.20;37.65;101041.13;5023243;28;20049;-79
2022/10/11 00:28:39;;;;;;;2.05;0.30;;;;;;;26.12;37.20;101036.94;5028370;28;20041;-83
2022/10/11 00:31:10;;;;;;;2.83;0.30;;;;;;;26.04;37.52;101038.06;5027623;28;20060;-82
2022/10/11 00:33:48;;;;;;;0.65;0.50;;;;;;;26.00;37.95;101047.03;5020077;28;20463;-80
2022/10/11 00:36:17;;;;;;;0.55;0.20;;;;;;;25.92;38.13;101047.25;5028619;28;20057;-82
2022/10/11 00:38:46;;;;;;;1.17;0.40;;;;;;;25.81;38.50;101036.06;5029006;28;20060;-84
2022/10/11 00:41:22;;;;;;;0.40;0.20;;;;;;;25.70;38.47;101034.63;5049397;28;20138;-81
2022/10/11 00:44:10;;;;;;;1.60;0.28;;;;;;;25.60;39.08;101035.78;5049629;28;20131;-79
2022/10/11 00:46:43;;;;;;;0.40;0.25;;;;;;;25.52;39.41;101039.56;5039083;28;20246;-78
2022/10/11 00:49:20;;;;;;;1.23;0.20;;;;;;;25.41;38.66;101037.22;5040354;28;20552;-80
2022/10/11 00:51:53;;;;;;;1.67;0.30;;;;;;;25.31;38.79;101035.72;5046804;28;20045;-81
2022/10/11 00:54:24;;;;;;;0.30;0.20;;;;;;;25.19;39.36;101031.63;5041395;28;20457;-87
2022/10/11 00:56:58;;;;;;;3.50;0.30;;;;;;;25.07;39.32;101038.09;5051435;28;20102;-83
2022/10/11 00:59:30;;;;;;;5.50;0.40;;;;;;;24.94;38.46;101032.22;5041965;28;20560;-83
2022/10/11 01:02:00;;;;;;;1.67;0.52;;;;;;;24.84;39.47;101033.38;5057328;28;20501;-78
2022/10/11 01:04:29;;;;;;;2.10;0.30;;;;;;;24.76;39.36;101028.31;5049354;28;20064;-84
2022/10/11 01:07:00;;;;;;;1.98;0.32;;;;;;;24.67;41.01;101028.53;5047197;28;20049;-82
2022/10/11 01:09:29;;;;;;;0.75;0.47;;;;;;;24.55;40.29;101034.97;5048014;28;20044;-77
2022/10/11 01:12:01;;;;;;;6.88;0.70;;;;;;;24.43;40.75;101041.38;5049595;28;20052;-78
2022/10/11 01:14:50;;;;;;;0.77;0.40;;;;;;;24.34;40.26;101038.09;5047239;28;20124;-85
2022/10/11 01:17:29;;;;;;;0.55;0.38;;;;;;;24.25;41.50;101044.47;5042262;28;20114;-81
2022/10/11 01:20:21;;;;;;;0.88;0.30;;;;;;;24.15;40.56;101051.72;5056725;28;20080;-80
2022/10/11 01:23:23;;;;;;;0.73;0.20;;;;;;;24.04;41.28;101048.44;5040996;28;20068;-85
2022/10/11 01:26:13;;;;;;;0.30;0.30;;;;;;;23.95;41.37;101060.09;5047678;28;20627;-83
2022/10/11 01:28:49;;;;;;;0.75;0.30;;;;;;;23.90;41.38;101045.25;5038799;28;20384;-81
2022/10/11 01:31:26;;;;;;;0.93;0.38;;;;;;;23.80;42.81;101055.09;5038603;28;20041;-80
2022/10/11 01:33:59;;;;;;;0.90;0.68;;;;;;;23.75;42.80;101063.13;5048038;28;20071;-83
2022/10/11 01:36:32;;;;;;;0.95;0.20;;;;;;;23.70;42.77;101064.09;5040275;28;20546;-81
2022/10/11 01:39:12;;;;;;;1.85;0.40;;;;;;;23.61;43.76;101071.28;5031722;28;20049;-81
2022/10/11 01:41:44;;;;;;;1.52;0.30;;;;;;;23.51;43.32;101061.81;5035947;28;20045;-84
2022/10/11 01:44:14;;;;;;;0.60;0.30;;;;;;;23.45;43.47;101064.56;5040117;28;20403;-82
2022/10/11 01:46:44;;;;;;;0.20;0.20;;;;;;;23.42;43.99;101075.22;5038228;28;20049;-77
2022/10/11 01:49:12;;;;;;;3.13;0.98;;;;;;;23.35;44.63;101070.94;5040315;28;20060;-79
2022/10/11 01:51:43;;;;;;;0.82;0.30;;;;;;;23.27;44.38;101075.47;5045639;28;20049;-80
2022/10/11 01:54:37;;;;;;;1.98;0.40;;;;;;;23.16;45.55;101076.56;5046903;28;20064;-79
2022/10/11 01:57:27;;;;;;;0.98;0.35;;;;;;;23.10;45.32;101076.66;5048128;28;20391;-80
2022/10/11 02:00:04;;;;;;;2.85;0.20;;;;;;;23.06;45.10;101089.94;5051200;28;20049;-78
2022/10/11 02:02:46;;;;;;;1.75;0.45;;;;;;;23.02;45.22;101085.59;5046967;28;20115;-81
2022/10/11 02:05:23;;;;;;;0.70;0.30;;;;;;;22.98;45.04;101096.19;5037541;28;20483;-79
2022/10/11 02:07:57;;;;;;;1.67;0.20;;;;;;;22.94;45.40;101104.16;5041886;28;20061;-76
2022/10/11 02:10:35;;;;;;;0.52;0.30;;;;;;;22.89;45.97;101111.28;5043374;28;20056;-76
2022/10/11 02:13:10;;;;;;;2.72;0.30;;;;;;;22.82;46.09;101104.38;5040813;28;20053;-75
2022/10/11 02:15:41;;;;;;;0.35;0.20;;;;;;;22.75;46.45;101109.72;5044081;28;20060;-74
2022/10/11 02:18:16;;;;;;;0.53;0.30;;;;;;;22.69;47.63;101111.59;5049388;28;20076;-76
2022/10/11 02:20:46;;;;;;;0.30;0.20;;;;;;;22.62;47.97;101108.16;5043679;28;20827;-76
2022/10/11 02:23:17;;;;;;;1.13;0.52;;;;;;;22.56;48.41;101122.34;5045451;28;20068;-76
2022/10/11 02:25:48;;;;;;;3.13;0.35;;;;;;;22.50;47.37;101125.03;5040668;28;20052;-77
2022/10/11 02:28:22;;;;;;;0.30;0.10;;;;;;;22.46;47.86;101125.09;5042429;28;20049;-74
2022/10/11 02:30:53;;;;;;;1.95;0.32;;;;;;;22.41;47.93;101125.16;5028128;28;20053;-74
2022/10/11 02:33:32;;;;;;;3.25;0.20;;;;;;;22.35;48.55;101118.19;5042488;28;20215;-73
2022/10/11 02:36:08;;;;;;;0.40;0.20;;;;;;;22.26;49.04;101115.69;5050055;28;20049;-72
2022/10/11 02:38:41;;;;;;;0.52;0.30;;;;;;;22.17;49.57;101113.13;5027387;28;20136;-73
2022/10/11 02:41:16;;;;;;;0.22;0.10;;;;;;;22.12;49.92;101120.25;5048944;28;20515;-74
2022/10/11 02:43:50;;;;;;;1.52;0.20;;;;;;;22.05;49.46;101122.06;5041964;28;20560;-74
2022/10/11 02:46:18;;;;;;;0.30;0.10;;;;;;;21.99;50.07;101127.44;5040941;28;20128;-73
2022/10/11 02:48:50;;;;;;;1.23;0.20;;;;;;;21.93;50.79;101125.72;5034939;28;20050;-73
2022/10/11 02:51:19;;;;;;;1.25;0.20;;;;;;;21.85;50.88;101139.88;5045406;28;20041;-75
2022/10/11 02:53:48;;;;;;;0.20;0.20;;;;;;;21.80;51.20;101142.56;5051518;28;20330;-78
2022/10/11 02:56:16;;;;;;;2.15;0.30;;;;;;;21.73;51.99;101156.69;5037722;28;20064;-76
2022/10/11 02:58:45;;;;;;;0.55;0.20;;;;;;;21.61;52.48;101154.19;5037595;28;20049;-79
2022/10/11 03:01:14;;;;;;;0.20;0.10;;;;;;;21.51;52.78;101150.78;5051111;28;20110;-79
2022/10/11 03:03:42;;;;;;;0.17;0.10;;;;;;;21.44;53.14;101139.44;5052496;28;20176;-79
2022/10/11 03:06:12;;;;;;;0.60;0.30;;;;;;;21.39;53.86;101145.56;5040475;28;20546;-79
2022/10/11 03:08:41;;;;;;;1.35;0.20;;;;;;;21.32;54.47;101155.28;5046166;28;20096;-78
2022/10/11 03:11:09;;;;;;;3.08;0.30;;;;;;;21.27;55.12;101159.72;5042653;28;20112;-77
2022/10/11 03:13:40;;;;;;;0.52;0.30;;;;;;;21.18;55.54;101167.69;5046097;28;20059;-77
2022/10/11 03:16:08;;;;;;;0.38;0.20;;;;;;;21.08;56.06;101167.75;5040612;28;20052;-77
2022/10/11 03:18:37;;;;;;;0.10;0.10;;;;;;;21.03;56.63;101159.03;5046386;28;20050;-79
2022/10/11 03:21:06;;;;;;;0.57;0.20;;;;;;;20.99;56.93;101164.31;5053247;28;20045;-76
2022/10/11 03:23:36;;;;;;;0.10;0.10;;;;;;;20.92;57.26;101176.63;5039983;28;20052;-76
2022/10/11 03:26:04;;;;;;;0.45;0.10;;;;;;;20.85;57.81;101164.41;5047186;28;20096;-77
2022/10/11 03:28:33;;;;;;;1.20;0.10;;;;;;;20.79;58.55;101172.34;5039821;28;20048;-82
2022/10/11 03:31:02;;;;;;;0.03;0.03;;;;;;;20.74;58.35;101172.34;5051814;28;20557;-79
2022/10/11 03:33:30;;;;;;;0.93;0.17;;;;;;;20.68;59.24;101177.66;5051290;28;20037;-84
2022/10/11 03:35:59;;;;;;;0.32;0.17;;;;;;;20.54;59.50;101175.06;5045208;28;20089;-84
2022/10/11 03:38:27;;;;;;;0.10;0.10;;;;;;;20.57;59.13;101187.34;5051302;28;20041;-80
2022/10/11 03:40:58;;;;;;;0.45;0.22;;;;;;;20.50;59.61;101184.72;5043021;28;20076;-81
2022/10/11 03:43:26;;;;;;;0.30;0.10;;;;;;;20.49;59.77;101184.72;5048185;28;20041;-78
2022/10/11 03:45:55;;;;;;;1.17;0.20;;;;;;;20.43;60.21;101185.63;5049754;28;20576;-75
2022/10/11 03:48:23;;;;;;;0.00;0.00;;;;;;;20.40;60.15;101174.25;5043421;28;20053;-80
2022/10/11 03:50:52;;;;;;;0.10;0.08;;;;;;;20.37;60.45;101175.16;5049606;28;20045;-77
2022/10/11 03:53:20;;;;;;;0.10;0.05;;;;;;;20.33;60.30;101165.53;5046752;28;20553;-80
2022/10/11 03:55:53;;;;;;;0.25;0.20;;;;;;;20.29;60.76;101174.28;5048790;28;20130;-76
2022/10/11 03:58:24;;;;;;;0.30;0.10;;;;;;;20.22;60.90;101168.19;5049762;28;20123;-78
2022/10/11 04:00:54;;;;;;;0.10;0.10;;;;;;;20.19;61.11;101180.47;5047200;28;20081;-78
2022/10/11 04:03:22;;;;;;;1.40;0.10;;;;;;;20.13;61.11;101176.09;5047069;28;20049;-77
2022/10/11 04:05:51;;;;;;;0.10;0.10;;;;;;;20.12;61.43;101181.38;5051890;28;20084;-80
2022/10/11 04:08:19;;;;;;;0.10;0.10;;;;;;;20.08;61.23;101196.25;5042728;28;20131;-78
2022/10/11 04:10:49;;;;;;;0.10;0.10;;;;;;;20.04;61.43;101195.41;5051007;28;20102;-80
2022/10/11 04:13:18;;;;;;;0.75;0.10;;;;;;;20.01;61.55;101191.91;5048590;28;20049;-79
2022/10/11 04:15:48;;;;;;;1.55;0.10;;;;;;;19.99;61.15;101198.91;5050341;28;20559;-81
2022/10/11 04:18:17;;;;;;;3.17;0.25;;;;;;;19.97;61.69;101198.91;5049854;28;20482;-83
2022/10/11 04:20:45;;;;;;;1.17;0.25;;;;;;;19.95;61.36;101197.16;5048390;28;20059;-81
2022/10/11 04:23:14;;;;;;;0.40;0.10;;;;;;;19.93;61.43;101201.53;5048714;28;20056;-80
2022/10/11 04:25:44;;;;;;;0.10;0.10;;;;;;;19.91;61.52;101208.56;5050571;28;20045;-83
2022/10/11 04:28:12;;;;;;;0.73;0.15;;;;;;;19.86;61.47;101219.94;5049584;28;20053;-84
2022/10/11 04:30:41;;;;;;;0.10;0.10;;;;;;;19.84;61.41;101223.47;5043264;28;20053;-82
2022/10/11 04:33:11;;;;;;;0.32;0.15;;;;;;;19.80;61.68;101227.81;5047363;28;20502;-81
2022/10/11 04:35:40;;;;;;;0.20;0.17;;;;;;;19.77;61.71;101233.09;5040002;28;20130;-82
2022/10/11 04:38:08;;;;;;;0.30;0.20;;;;;;;19.75;61.92;101223.47;5042415;28;20050;-81
2022/10/11 04:40:37;;;;;;;0.28;0.25;;;;;;;19.73;62.80;101225.22;5046190;27;20060;-81
2022/10/11 04:43:06;;;;;;;0.35;0.20;;;;;;;19.66;63.56;101230.44;5043511;28;20045;-83
2022/10/11 04:45:34;;;;;;;0.52;0.20;;;;;;;19.60;63.41;101230.41;5048290;28;20483;-82
2022/10/11 04:48:03;;;;;;;0.40;0.30;;;;;;;19.54;63.57;101222.56;5042377;28;20495;-80
2022/10/11 04:50:33;;;;;;;0.40;0.30;;;;;;;19.48;63.83;101219.06;5047891;28;20498;-82
2022/10/11 04:53:01;;;;;;;0.00;0.00;;;;;;;19.43;63.83;101232.19;5048037;28;20049;-81
2022/10/11 04:55:30;;;;;;;1.92;0.13;;;;;;;19.38;63.88;101229.56;5042668;28;20049;-80
2022/10/11 04:57:58;;;;;;;0.10;0.10;;;;;;;19.37;64.27;101237.41;5046057;28;20051;-78
2022/10/11 05:00:27;;;;;;;0.28;0.10;;;;;;;19.26;64.88;101250.50;5048124;28;20060;-78
2022/10/11 05:02:55;;;;;;;0.13;0.10;;;;;;;19.16;65.25;101243.53;5046274;28;20053;-79
2022/10/11 05:05:26;;;;;;;0.38;0.25;;;;;;;19.09;65.31;101242.63;5048626;28;20044;-78
2022/10/11 05:07:56;;;;;;;0.08;0.03;;;;;;;19.08;65.28;101253.09;5047041;28;20068;-79
2022/10/11 05:10:24;;;;;;;0.20;0.08;;;;;;;19.05;65.39;101252.22;5044078;28;20052;-78
2022/10/11 05:12:53;;;;;;;0.10;0.03;;;;;;;19.02;65.54;101256.59;5045268;28;20092;-80
2022/10/11 05:15:21;;;;;;;0.35;0.10;;;;;;;19.00;65.76;101258.34;5038025;28;20084;-81
2022/10/11 05:17:50;;;;;;;0.60;0.17;;;;;;;18.99;66.07;101270.59;5048406;28;20045;-82
2022/10/11 05:20:18;;;;;;;0.45;0.10;;;;;;;18.98;66.35;101266.19;5052167;28;20057;-80
2022/10/11 05:22:47;;;;;;;0.30;0.10;;;;;;;18.96;66.66;101267.94;5042097;28;20049;-80
2022/10/11 05:25:17;;;;;;;1.55;0.40;;;;;;;18.93;66.52;101273.19;5046316;28;20042;-83
2022/10/11 05:27:46;;;;;;;0.43;0.10;;;;;;;18.90;66.70;101283.66;5040684;28;20059;-80
2022/10/11 05:30:14;;;;;;;0.20;0.20;;;;;;;18.87;66.99;101273.16;5050867;28;20132;-83
2022/10/11 05:32:43;;;;;;;0.68;0.30;;;;;;;18.86;67.27;101274.03;5049320;28;20111;-84
2022/10/11 05:35:12;;;;;;;2.20;0.25;;;;;;;18.86;67.34;101281.91;5048753;28;20052;-82
2022/10/11 05:37:40;;;;;;;0.20;0.10;;;;;;;18.87;67.77;101273.16;5044442;28;20515;-82
2022/10/11 05:40:10;;;;;;;0.00;0.00;;;;;;;18.87;67.53;101275.78;5036277;27;20495;-81
2022/10/11 05:42:40;;;;;;;0.32;0.17;;;;;;;18.87;67.53;101272.28;5042757;28;20041;-83
2022/10/11 05:45:10;;;;;;;0.30;0.10;;;;;;;18.88;68.19;101280.16;5045243;28;20391;-83
2022/10/11 05:47:38;;;;;;;0.30;0.10;;;;;;;18.92;68.02;101284.56;5051115;28;20051;-83
2022/10/11 05:50:07;;;;;;;0.13;0.13;;;;;;;18.93;67.80;101286.28;5049362;28;20050;-84
2022/10/11 05:52:36;;;;;;;0.20;0.10;;;;;;;18.94;67.82;101280.16;5044655;28;20053;-81
2022/10/11 05:55:05;;;;;;;0.20;0.10;;;;;;;18.94;68.23;101274.91;5046638;28;20132;-81
2022/10/11 05:57:34;;;;;;;0.00;0.00;;;;;;;18.93;67.92;101273.19;5042320;28;20053;-83
2022/10/11 06:00:04;;;;;;;0.22;0.10;;;;;;;18.95;68.06;101281.94;5051411;28;20049;-76
2022/10/11 06:02:34;;;;;;;0.30;0.10;;;;;;;18.95;68.05;101281.94;5052612;28;20045;-75
2022/10/11 06:05:03;;;;;;;0.00;0.00;;;;;;;18.99;67.58;101293.31;5042142;28;20128;-74
2022/10/11 06:07:32;;;;;;;0.63;0.20;;;;;;;18.99;67.52;101288.06;5045712;28;20056;-74
2022/10/11 06:10:00;;;;;;;1.20;0.10;;;;;;;18.98;67.54;101289.78;5042530;28;20044;-75
2022/10/11 06:12:30;;;;;;;0.15;0.13;;;;;;;18.90;68.12;101282.75;5050959;28;20571;-75
2022/10/11 06:14:59;;;;;;;1.45;0.05;;;;;;;18.90;68.18;101281.03;5046757;28;20068;-74
2022/10/11 06:17:29;;;;;;;0.10;0.10;;;;;;;18.89;68.12;101287.16;5050107;28;20449;-75
2022/10/11 06:19:58;;;;;;;0.10;0.05;;;;;;;18.90;67.86;101286.28;5038393;28;20524;-75
2022/10/11 06:22:27;;;;;;;0.28;0.10;;;;;;;18.92;68.08;101286.28;5040322;28;20309;-75
2022/10/11 06:24:55;;;;;;;0.10;0.10;;;;;;;18.92;67.69;101281.94;5040935;28;20124;-75
2022/10/11 06:27:24;;;;;;;0.52;0.20;;;;;;;18.92;67.66;101281.94;5049325;28;20056;-75
2022/10/11 06:29:52;;;;;;;0.20;0.17;;;;;;;18.91;67.75;101280.16;5042835;28;20048;-75
2022/10/11 06:32:21;;;;;;;0.30;0.30;;;;;;;18.91;67.25;101274.91;5047732;28;20499;-74
2022/10/11 06:34:51;;;;;;;0.28;0.20;;;;;;;18.88;67.90;101280.16;5050322;28;20067;-74
2022/10/11 06:37:19;;;;;;;0.52;0.30;;;;;;;18.83;67.85;101282.75;5041417;28;20057;-76
2022/10/11 06:39:49;;;;;;;0.47;0.22;;;;;;;18.82;67.99;101280.13;5051220;28;20372;-76
2022/10/11 06:42:18;;;;;;;0.47;0.35;;;;;;;18.80;68.05;101276.63;5032847;28;20127;-75
2022/10/11 06:44:46;;;;;;;0.10;0.10;;;;;;;18.76;68.29;101274.81;5024926;28;20046;-75
2022/10/11 06:47:15;;;;;;;0.20;0.20;;;;;;;18.72;68.13;101268.69;5032584;28;20408;-75
2022/10/11 06:49:43;;;;;;;0.90;0.30;;;;;;;18.67;68.31;101269.53;5030742;28;20037;-75
2022/10/11 06:52:13;;;;;;;1.75;0.30;;;;;;;18.61;68.73;101268.66;5020398;28;20053;-76
2022/10/11 06:54:42;;;;;;;0.47;0.28;;;;;;;18.57;69.02;101266.88;5026594;28;20045;-76
2022/10/11 06:57:10;;;;;;;0.50;0.30;;;;;;;18.54;69.27;101264.25;5028397;28;20053;-76
2022/10/11 06:59:46;;;;;;;0.85;0.30;;;;;;;18.49;69.60;101265.09;5020548;28;20562;-76
2022/10/11 07:02:14;;;;;;;0.88;0.10;;;;;;;18.44;69.74;101275.56;5031155;28;20048;-75
2022/10/11 07:04:43;;;;;;;1.45;0.28;;;;;;;18.37;69.88;101276.38;5015563;28;20495;-76
2022/10/11 07:07:15;;;;;;;0.45;0.25;;;;;;;18.31;70.18;101273.75;5024417;28;20045;-75
2022/10/11 07:09:44;;;;;;;3.35;0.60;;;;;;;18.24;70.73;101277.19;5029968;28;20399;-76
2022/10/11 07:12:13;;;;;;;0.65;0.20;;;;;;;18.17;70.73;101269.28;5032737;28;20060;-75
2022/10/11 07:14:41;;;;;;;1.27;0.55;;;;;;;18.10;71.10;101262.25;5021555;28;20085;-75
2022/10/11 07:17:10;;;;;;;3.05;0.50;;;;;;;17.99;71.13;101250.84;5024255;28;20097;-75
2022/10/11 07:19:38;;;;;;;1.95;0.25;;;;;;;17.99;71.86;101263.94;5022308;28;20045;-75
2022/10/11 07:22:07;;;;;;;0.77;0.47;;;;;;;17.93;71.76;101271.72;5028068;28;20042;-76
2022/10/11 07:24:37;;;;;;;1.33;0.40;;;;;;;17.86;72.42;101273.41;5018340;28;20053;-75
2022/10/11 07:27:06;;;;;;;0.88;0.30;;;;;;;17.80;72.47;101268.13;5016555;28;20440;-74
2022/10/11 07:29:34;;;;;;;0.30;0.30;;;;;;;17.75;72.05;101270.69;5017129;28;20066;-74
2022/10/11 07:32:03;;;;;;;0.60;0.25;;;;;;;17.67;72.46;101274.13;5021342;28;20053;-74
2022/10/11 07:34:31;;;;;;;0.57;0.35;;;;;;;17.61;73.59;101284.50;5028951;28;20060;-76
2022/10/11 07:37:00;;;;;;;1.75;0.45;;;;;;;17.56;72.94;101284.47;5027252;28;20403;-76
2022/10/11 07:39:29;;;;;;;4.13;0.47;;;;;;;17.49;73.48;101283.53;5025508;28;20522;-75
2022/10/11 07:41:59;;;;;;;0.57;0.25;;;;;;;17.41;73.83;101285.22;5044531;28;20049;-74
2022/10/11 07:44:28;;;;;;;1.35;0.30;;;;;;;17.28;75.12;101299.91;5046311;28;20588;-74
2022/10/11 07:46:56;;;;;;;0.73;0.40;;;;;;;17.16;76.79;101299.78;5041855;28;20100;-74
2022/10/11 07:49:25;;;;;;;0.45;0.22;;;;;;;17.05;77.05;101285.69;5043365;28;20061;-75
2022/10/11 07:51:53;;;;;;;0.47;0.38;;;;;;;17.02;77.17;101288.25;5042218;28;20053;-75
2022/10/11 07:54:22;;;;;;;0.60;0.40;;;;;;;16.98;77.28;101292.59;5042224;28;20048;-75
2022/10/11 07:56:50;;;;;;;0.60;0.20;;;;;;;16.94;76.67;101289.06;5041860;28;20060;-76
2022/10/11 07:59:20;;;;;;;0.28;0.20;;;;;;;16.91;76.31;101283.81;5047304;28;20506;-75
2022/10/11 08:01:49;;;;;;;1.75;0.45;;;;;;;16.89;76.65;101295.97;5051281;28;20084;-75
2022/10/11 08:04:18;;;;;;;1.55;0.32;;;;;;;16.86;77.38;101290.72;5049803;28;20056;-75
2022/10/11 08:06:46;;;;;;;0.38;0.22;;;;;;;16.84;77.19;101292.44;5049752;28;20053;-75
2022/10/11 08:09:15;;;;;;;0.68;0.38;;;;;;;16.82;76.47;101298.50;5047351;28;20115;-75
2022/10/11 08:11:43;;;;;;;0.70;0.25;;;;;;;16.72;76.27;101302.69;5044156;28;20061;-75
2022/10/11 08:14:12;;;;;;;0.73;0.30;;;;;;;16.68;77.35;101306.13;5047985;28;20491;-75
2022/10/11 08:16:42;;;;;;;0.82;0.35;;;;;;;16.61;77.90;101306.91;5050676;28;20416;-75
2022/10/11 08:19:11;;;;;;;0.17;0.10;;;;;;;16.54;78.25;101304.19;5047863;28;20045;-74
2022/10/11 08:21:40;;;;;;;0.77;0.40;;;;;;;16.50;78.73;101311.97;5039503;28;20049;-75
2022/10/11 08:24:09;;;;;;;0.22;0.10;;;;;;;16.47;78.80;101301.47;5038497;28;20075;-75
2022/10/11 08:26:37;;;;;;;0.60;0.30;;;;;;;16.42;78.42;101309.22;5045006;28;20107;-74
2022/10/11 08:29:06;;;;;;;0.20;0.20;;;;;;;16.46;79.19;101310.19;5035343;28;20045;-76
2022/10/11 08:31:35;;;;;;;0.13;0.10;;;;;;;16.44;78.58;101315.38;5047193;28;20045;-74
2022/10/11 08:34:06;;;;;;;1.50;0.68;;;;;;;16.38;77.31;101315.31;5046931;28;20107;-75
2022/10/11 08:36:34;;;;;;;0.17;0.17;;;;;;;16.37;77.63;101316.13;5037886;28;20045;-74
2022/10/11 08:39:03;;;;;;;0.30;0.13;;;;;;;16.36;77.88;101324.84;5047589;28;20052;-75
2022/10/11 08:41:38;;;;;;;0.75;0.03;;;;;;;16.36;76.45;101313.53;5039515;28;20061;-75
2022/10/11 08:44:28;;;;;;;0.25;0.15;;;;;;;16.33;75.06;101314.31;5044066;28;20049;-75
2022/10/11 08:47:02;;;;;;;0.63;0.20;;;;;;;16.30;75.90;101316.91;5044976;28;20045;-76
2022/10/11 08:49:35;;;;;;;1.65;0.45;;;;;;;16.29;75.65;101317.78;5047816;28;20442;-75
2022/10/11 08:52:07;;;;;;;0.52;0.10;;;;;;;16.28;74.81;101316.00;5038716;28;20045;-74
2022/10/11 08:54:45;;;;;;;0.47;0.10;;;;;;;16.27;75.13;101322.09;5048315;28;20045;-76
2022/10/11 08:57:17;;;;;;;0.52;0.40;;;;;;;16.23;74.94;101322.91;5044151;28;20041;-77
2022/10/11 08:59:50;;;;;;;2.38;0.50;;;;;;;16.18;74.10;101327.19;5043293;28;20110;-74
2022/10/11 09:02:30;;;;;;;2.92;0.30;;;;;;;16.11;74.14;101319.22;5059787;28;20040;-73
2022/10/11 09:05:01;;;;;;;1.65;0.20;;;;;;;16.10;73.59;101317.50;5065461;28;20056;-72
2022/10/11 09:07:43;;;;;;;1.92;0.32;;;;;;;16.11;73.40;101319.22;5053802;28;20037;-74
2022/10/11 09:10:36;;;;;;;1.40;0.33;;;;;;;16.08;73.47;101324.41;5057944;28;20068;-74
2022/10/11 09:13:30;;;;;;;2.13;0.20;;;;;;;16.05;73.57;101324.34;5066768;28;20057;-74
2022/10/11 09:16:09;;;;;;;1.20;0.20;;;;;;;16.02;73.27;101319.09;5065998;28;20044;-74
2022/10/11 09:18:55;;;;;;;0.77;0.45;;;;;;;15.97;73.22;101331.19;5062318;28;20122;-74
2022/10/11 09:21:32;;;;;;;1.10;0.20;;;;;;;15.95;74.15;101332.91;5064342;28;20052;-74
2022/10/11 09:24:29;;;;;;;1.65;0.38;;;;;;;15.91;73.22;101345.00;5057700;28;20048;-74
2022/10/11 09:27:01;;;;;;;2.28;0.45;;;;;;;15.87;72.46;101351.03;5063777;28;20497;-74
2022/10/11 09:29:48;;;;;;;4.57;0.47;;;;;;;15.79;72.72;101343.94;5071253;28;21260;-74
2022/10/11 09:32:19;;;;;;;1.20;0.40;;;;;;;15.80;73.32;101363.94;5063597;28;20040;-73
2022/10/11 09:34:54;;;;;;;5.07;0.50;;;;;;;15.63;70.54;101361.88;5055353;28;20045;-74
2022/10/11 09:37:28;;;;;;;1.73;0.22;;;;;;;15.59;72.19;101375.69;5058742;28;20044;-74
2022/10/11 09:40:02;;;;;;;2.67;0.40;;;;;;;15.56;71.40;101385.22;5071143;28;20040;-73
2022/10/11 09:42:31;;;;;;;4.60;0.82;;;;;;;15.54;70.32;101384.31;5028844;28;20053;-73
2022/10/11 09:45:01;;;;;;;3.50;0.65;;;;;;;15.47;71.48;101386.78;5027327;28;20103;-75
2022/10/11 09:47:31;;;;;;;4.68;0.68;;;;;;;15.46;70.08;101399.78;5021924;28;20404;-74
2022/10/11 09:50:03;;;;;;;2.80;0.50;;;;;;;15.39;68.85;101403.13;5022498;28;20054;-75
2022/10/11 09:52:34;;;;;;;4.13;1.23;;;;;;;15.34;68.01;101394.34;5028192;28;20037;-75
2022/10/11 09:55:03;;;;;;;13.77;1.20;;;;;;;15.34;66.35;101394.34;5033337;28;20441;-76
2022/10/11 09:57:33;;;;;;;3.95;0.70;;;;;;;15.31;65.61;101395.16;5028663;28;20046;-75
2022/10/11 10:00:06;;;;;;;3.33;0.70;;;;;;;15.26;65.16;101407.22;5032504;28;20407;-75
2022/10/11 10:02:41;;;;;;;6.07;0.80;;;;;;;15.23;64.39;101408.06;5025818;28;20128;-75
2022/10/11 10:05:21;;;;;;;6.05;1.05;;;;;;;15.21;64.77;101407.13;5027310;28;20085;-75
2022/10/11 10:08:25;;;;;;;5.55;0.70;;;;;;;15.21;64.54;101409.75;5018919;28;20123;-74
2022/10/11 10:11:03;;;;;;;6.63;1.00;;;;;;;15.21;63.54;101414.94;4978315;28;20061;-76
2022/10/11 10:13:44;;;;;;;6.68;1.15;;;;;;;15.20;63.50;101426.22;5025760;28;20491;-75
2022/10/11 10:16:25;;;;;;;7.35;1.75;;;;;;;15.16;62.17;101413.94;5024737;28;20087;-75
2022/10/11 10:18:56;;;;;;;9.00;1.55;;;;;;;15.23;61.57;101428.00;5021796;28;20061;-75
2022/10/11 10:21:31;;;;;;;15.70;1.80;;;;;;;15.23;60.64;101425.41;5024352;28;20050;-72
2022/10/11 10:24:05;;;;;;;5.28;1.13;;;;;;;15.22;61.34;101421.03;5025482;28;20045;-74
2022/10/11 10:26:35;;;;;;;10.25;1.67;;;;;;;15.19;61.62;101415.78;5022671;28;20095;-74
2022/10/11 10:29:17;;;;;;;7.55;1.05;;;;;;;15.16;61.38;101416.56;5028115;28;20552;-76
2022/10/11 10:31:55;;;;;;;9.60;1.73;;;;;;;15.14;61.30;101415.69;5025337;28;20061;-75
2022/10/11 10:34:29;;;;;;;4.22;0.80;;;;;;;15.11;61.69;101410.38;5020998;28;20050;-74
2022/10/11 10:37:01;;;;;;;6.00;1.00;;;;;;;15.11;61.50;101417.31;5026059;28;20049;-75
2022/10/11 10:39:35;;;;;;;;;;;;;;;15.08;61.05;101403.38;5032355;28;20049;-73
2022/10/11 10:42:12;;;;;;;7.15;1.48;;;;;;;15.05;61.82;101405.94;5039475;28;19920;-74
2022/10/11 10:44:40;;;;;;;4.63;1.25;;;;;;;15.05;61.69;101407.66;5047697;28;20113;-75
2022/10/11 10:47:15;;;;;;;4.13;0.90;;;;;;;15.03;62.11;101409.34;5049468;28;20071;-74
2022/10/11 10:49:46;;;;;;;7.57;1.45;;;;;;;14.99;62.59;101402.31;5042284;28;20072;-75
2022/10/11 10:52:43;;;;;;;5.45;1.05;;;;;;;14.97;61.75;101404.00;5048708;28;20044;-76
2022/10/11 10:55:24;;;;;;;8.98;1.08;;;;;;;14.95;61.35;101400.47;5042165;28;20044;-74
2022/10/11 10:58:08;;;;;;;7.45;0.80;;;;;;;14.89;61.25;101390.81;5041301;28;20091;-74
2022/10/11 11:00:44;;;;;;;5.45;0.90;;;;;;;14.83;61.83;101381.13;5055411;28;20052;-75
2022/10/11 11:03:22;;;;;;;7.65;1.15;;;;;;;14.82;61.19;101384.59;5050603;28;20537;-75
2022/10/11 11:06:02;;;;;;;4.38;1.15;;;;;;;14.77;61.74;101391.38;5047291;28;20041;-74
2022/10/11 11:08:48;;;;;;;6.50;1.40;;;;;;;14.68;62.99;101385.09;5048909;28;20045;-75
2022/10/11 11:11:37;;;;;;;6.10;1.02;;;;;;;14.67;63.22;101397.25;5048298;28;20512;-74
2022/10/11 11:14:19;;;;;;;7.68;1.42;;;;;;;14.63;63.90;101398.88;5051119;28;20099;-73
2022/10/11 11:16:56;;;;;;;8.98;1.35;;;;;;;14.62;63.93;101404.97;5047404;28;20052;-76
2022/10/11 11:19:38;;;;;;;5.10;1.17;;;;;;;14.62;63.37;101410.16;5049489;28;20676;-77
2022/10/11 11:22:16;;;;;;;2.45;0.73;;;;;;;14.59;63.26;101412.72;5037825;28;20147;-75
2022/10/11 11:24:53;;;;;;;8.13;1.27;;;;;;;14.56;63.01;101422.16;5045710;28;20053;-76
2022/10/11 11:27:37;;;;;;;8.02;1.33;;;;;;;14.52;63.06;101422.88;5040959;28;20482;-76
2022/10/11 11:30:10;;;;;;;6.90;1.83;;;;;;;14.49;63.00;101420.22;5047985;28;20045;-76
2022/10/11 11:32:45;;;;;;;;;;;;;;;14.41;62.95;101427.88;5048568;28;20128;-75
2022/10/11 11:35:25;;;;;;;4.00;0.75;;;;;;;14.31;63.34;101431.94;5042455;28;19920;-73
2022/10/11 11:37:59;;;;;;;8.43;1.27;;;;;;;14.19;63.67;101437.72;5048131;28;20056;-74
2022/10/11 11:40:35;;;;;;;4.65;0.95;;;;;;;14.16;63.94;101444.59;5036876;27;20051;-74
2022/10/11 11:43:08;;;;;;;5.97;1.17;;;;;;;14.13;64.07;101445.38;5051574;28;20044;-74
2022/10/11 11:45:47;;;;;;;4.22;0.85;;;;;;;14.12;64.60;101451.41;5045012;28;20065;-75
2022/10/11 11:48:18;;;;;;;4.70;1.40;;;;;;;14.14;64.30;101459.28;5045932;28;20131;-74
2022/10/11 11:50:54;;;;;;;4.53;1.00;;;;;;;14.14;65.10;101462.75;5048746;28;20085;-75